sensor_id;sensor_type;location;lat;lon;timestamp;temperature;humidity
21682;DHT22;11002;48.256;10.084;2024-02-04T00:00:28;6.00;64.90
21682;DHT22;11002;48.256;10.084;2024-02-04T00:02:56;6.00;64.80
21682;DHT22;11002;48.256;10.084;2024-02-04T00:05:23;6.00;64.20
21682;DHT22;11002;48.256;10.084;2024-02-04T00:07:51;6.00;64.00
21682;DHT22;11002;48.256;10.084;2024-02-04T00:10:18;6.00;64.10
21682;DHT22;11002;48.256;10.084;2024-02-04T00:12:46;6.20;64.10
21682;DHT22;11002;48.256;10.084;2024-02-04T00:15:14;6.00;63.60
21682;DHT22;11002;48.256;10.084;2024-02-04T00:17:42;6.00;63.60
21682;DHT22;11002;48.256;10.084;2024-02-04T00:20:09;6.00;63.10
21682;DHT22;11002;48.256;10.084;2024-02-04T00:22:37;6.00;63.30
21682;DHT22;11002;48.256;10.084;2024-02-04T00:25:04;5.90;63.30
21682;DHT22;11002;48.256;10.084;2024-02-04T00:27:32;5.90;63.50
21682;DHT22;11002;48.256;10.084;2024-02-04T00:29:59;5.90;63.90
21682;DHT22;11002;48.256;10.084;2024-02-04T00:32:28;5.80;64.20
21682;DHT22;11002;48.256;10.084;2024-02-04T00:34:55;5.80;65.40
21682;DHT22;11002;48.256;10.084;2024-02-04T00:37:23;5.80;65.00
21682;DHT22;11002;48.256;10.084;2024-02-04T00:39:50;5.70;65.50
21682;DHT22;11002;48.256;10.084;2024-02-04T00:42:17;5.60;65.80
21682;DHT22;11002;48.256;10.084;2024-02-04T00:44:44;5.60;66.50
21682;DHT22;11002;48.256;10.084;2024-02-04T00:47:12;5.50;66.80
21682;DHT22;11002;48.256;10.084;2024-02-04T00:49:41;5.60;66.90
21682;DHT22;11002;48.256;10.084;2024-02-04T00:52:08;5.60;66.80
21682;DHT22;11002;48.256;10.084;2024-02-04T00:54:36;5.60;67.00
21682;DHT22;11002;48.256;10.084;2024-02-04T00:57:03;5.50;67.60
21682;DHT22;11002;48.256;10.084;2024-02-04T00:59:31;5.50;68.20
21682;DHT22;11002;48.256;10.084;2024-02-04T01:01:58;5.50;68.60
21682;DHT22;11002;48.256;10.084;2024-02-04T01:04:25;5.50;68.60
21682;DHT22;11002;48.256;10.084;2024-02-04T01:06:54;5.50;68.60
21682;DHT22;11002;48.256;10.084;2024-02-04T01:09:21;5.50;68.70
21682;DHT22;11002;48.256;10.084;2024-02-04T01:11:48;5.60;68.70
21682;DHT22;11002;48.256;10.084;2024-02-04T01:14:16;5.60;68.70
21682;DHT22;11002;48.256;10.084;2024-02-04T01:16:43;5.60;67.90
21682;DHT22;11002;48.256;10.084;2024-02-04T01:19:10;5.70;67.40
21682;DHT22;11002;48.256;10.084;2024-02-04T01:21:38;5.70;67.10
21682;DHT22;11002;48.256;10.084;2024-02-04T01:24:07;5.70;66.70
21682;DHT22;11002;48.256;10.084;2024-02-04T01:26:34;5.80;66.50
21682;DHT22;11002;48.256;10.084;2024-02-04T01:29:01;5.80;66.70
21682;DHT22;11002;48.256;10.084;2024-02-04T01:31:28;5.70;66.80
21682;DHT22;11002;48.256;10.084;2024-02-04T01:33:57;5.80;67.10
21682;DHT22;11002;48.256;10.084;2024-02-04T01:36:25;5.60;67.00
21682;DHT22;11002;48.256;10.084;2024-02-04T01:38:52;5.70;67.20
21682;DHT22;11002;48.256;10.084;2024-02-04T01:41:21;5.70;67.00
21682;DHT22;11002;48.256;10.084;2024-02-04T01:43:50;5.70;67.80
21682;DHT22;11002;48.256;10.084;2024-02-04T01:46:17;5.70;67.30
21682;DHT22;11002;48.256;10.084;2024-02-04T01:48:44;5.80;68.00
21682;DHT22;11002;48.256;10.084;2024-02-04T01:51:13;5.60;68.70
21682;DHT22;11002;48.256;10.084;2024-02-04T01:53:42;5.70;68.70
21682;DHT22;11002;48.256;10.084;2024-02-04T01:56:11;5.70;68.40
21682;DHT22;11002;48.256;10.084;2024-02-04T01:58:42;5.70;68.30
21682;DHT22;11002;48.256;10.084;2024-02-04T02:01:10;5.70;68.40
21682;DHT22;11002;48.256;10.084;2024-02-04T02:03:39;5.70;68.30
21682;DHT22;11002;48.256;10.084;2024-02-04T02:06:07;5.70;68.10
21682;DHT22;11002;48.256;10.084;2024-02-04T02:08:34;5.90;68.30
21682;DHT22;11002;48.256;10.084;2024-02-04T02:11:05;5.70;68.10
21682;DHT22;11002;48.256;10.084;2024-02-04T02:13:35;5.70;67.90
21682;DHT22;11002;48.256;10.084;2024-02-04T02:16:09;5.70;68.10
21682;DHT22;11002;48.256;10.084;2024-02-04T02:18:43;5.60;67.90
21682;DHT22;11002;48.256;10.084;2024-02-04T02:21:19;5.60;67.90
21682;DHT22;11002;48.256;10.084;2024-02-04T02:24:03;5.60;67.90
21682;DHT22;11002;48.256;10.084;2024-02-04T02:26:32;5.50;67.90
21682;DHT22;11002;48.256;10.084;2024-02-04T02:29:04;5.50;68.00
21682;DHT22;11002;48.256;10.084;2024-02-04T02:31:31;5.40;68.50
21682;DHT22;11002;48.256;10.084;2024-02-04T02:33:59;5.40;68.50
21682;DHT22;11002;48.256;10.084;2024-02-04T02:36:29;5.40;68.50
21682;DHT22;11002;48.256;10.084;2024-02-04T02:39:05;5.30;68.40
21682;DHT22;11002;48.256;10.084;2024-02-04T02:41:38;5.30;68.40
21682;DHT22;11002;48.256;10.084;2024-02-04T02:44:07;5.40;68.50
21682;DHT22;11002;48.256;10.084;2024-02-04T02:46:36;5.30;68.60
21682;DHT22;11002;48.256;10.084;2024-02-04T02:49:04;5.30;69.60
21682;DHT22;11002;48.256;10.084;2024-02-04T02:51:31;5.30;69.80
21682;DHT22;11002;48.256;10.084;2024-02-04T02:53:58;5.30;69.80
21682;DHT22;11002;48.256;10.084;2024-02-04T02:56:26;5.30;69.50
21682;DHT22;11002;48.256;10.084;2024-02-04T02:58:55;5.30;69.50
21682;DHT22;11002;48.256;10.084;2024-02-04T03:01:22;5.30;69.50
21682;DHT22;11002;48.256;10.084;2024-02-04T03:03:50;5.30;69.10
21682;DHT22;11002;48.256;10.084;2024-02-04T03:06:17;5.30;69.10
21682;DHT22;11002;48.256;10.084;2024-02-04T03:08:44;5.40;69.20
21682;DHT22;11002;48.256;10.084;2024-02-04T03:11:12;5.30;68.60
21682;DHT22;11002;48.256;10.084;2024-02-04T03:13:39;5.40;68.60
21682;DHT22;11002;48.256;10.084;2024-02-04T03:16:11;5.40;68.60
21682;DHT22;11002;48.256;10.084;2024-02-04T03:18:40;5.40;68.50
21682;DHT22;11002;48.256;10.084;2024-02-04T03:21:12;5.40;68.50
21682;DHT22;11002;48.256;10.084;2024-02-04T03:23:41;5.40;68.50
21682;DHT22;11002;48.256;10.084;2024-02-04T03:26:09;5.50;68.60
21682;DHT22;11002;48.256;10.084;2024-02-04T03:28:37;5.50;68.60
21682;DHT22;11002;48.256;10.084;2024-02-04T03:31:05;5.50;68.60
21682;DHT22;11002;48.256;10.084;2024-02-04T03:33:33;5.50;68.60
21682;DHT22;11002;48.256;10.084;2024-02-04T03:36:01;5.50;68.60
21682;DHT22;11002;48.256;10.084;2024-02-04T03:38:28;5.50;68.60
21682;DHT22;11002;48.256;10.084;2024-02-04T03:40:56;5.50;68.60
21682;DHT22;11002;48.256;10.084;2024-02-04T03:43:23;5.50;68.70
21682;DHT22;11002;48.256;10.084;2024-02-04T03:45:51;5.50;68.60
21682;DHT22;11002;48.256;10.084;2024-02-04T03:48:18;5.50;68.60
21682;DHT22;11002;48.256;10.084;2024-02-04T03:50:47;5.50;68.60
21682;DHT22;11002;48.256;10.084;2024-02-04T03:53:14;5.60;68.70
21682;DHT22;11002;48.256;10.084;2024-02-04T03:55:41;5.60;68.70
21682;DHT22;11002;48.256;10.084;2024-02-04T03:58:08;5.50;68.60
21682;DHT22;11002;48.256;10.084;2024-02-04T04:00:36;5.60;68.70
21682;DHT22;11002;48.256;10.084;2024-02-04T04:03:03;5.60;68.70
21682;DHT22;11002;48.256;10.084;2024-02-04T04:05:31;5.60;68.70
21682;DHT22;11002;48.256;10.084;2024-02-04T04:08:00;5.70;68.80
21682;DHT22;11002;48.256;10.084;2024-02-04T04:10:27;5.60;68.70
21682;DHT22;11002;48.256;10.084;2024-02-04T04:12:54;5.60;68.70
21682;DHT22;11002;48.256;10.084;2024-02-04T04:15:21;5.60;68.70
21682;DHT22;11002;48.256;10.084;2024-02-04T04:17:48;5.80;68.80
21682;DHT22;11002;48.256;10.084;2024-02-04T04:20:16;5.60;68.50
21682;DHT22;11002;48.256;10.084;2024-02-04T04:22:43;5.70;68.10
21682;DHT22;11002;48.256;10.084;2024-02-04T04:25:12;5.70;68.30
21682;DHT22;11002;48.256;10.084;2024-02-04T04:27:39;5.70;68.30
21682;DHT22;11002;48.256;10.084;2024-02-04T04:30:07;5.70;68.20
21682;DHT22;11002;48.256;10.084;2024-02-04T04:32:35;5.70;68.80
21682;DHT22;11002;48.256;10.084;2024-02-04T04:35:03;5.70;68.80
21682;DHT22;11002;48.256;10.084;2024-02-04T04:37:30;5.70;68.80
21682;DHT22;11002;48.256;10.084;2024-02-04T04:39:57;5.70;68.70
21682;DHT22;11002;48.256;10.084;2024-02-04T04:42:26;5.60;68.70
21682;DHT22;11002;48.256;10.084;2024-02-04T04:44:53;5.60;68.70
21682;DHT22;11002;48.256;10.084;2024-02-04T04:47:20;5.70;68.80
21682;DHT22;11002;48.256;10.084;2024-02-04T04:49:48;5.60;68.70
21682;DHT22;11002;48.256;10.084;2024-02-04T04:52:16;5.60;68.70
21682;DHT22;11002;48.256;10.084;2024-02-04T04:54:43;5.60;68.70
21682;DHT22;11002;48.256;10.084;2024-02-04T04:57:11;5.60;68.70
21682;DHT22;11002;48.256;10.084;2024-02-04T04:59:39;5.60;68.70
21682;DHT22;11002;48.256;10.084;2024-02-04T05:02:07;5.60;68.70
21682;DHT22;11002;48.256;10.084;2024-02-04T05:04:36;5.60;68.70
21682;DHT22;11002;48.256;10.084;2024-02-04T05:07:04;5.60;68.70
21682;DHT22;11002;48.256;10.084;2024-02-04T05:09:31;5.60;68.70
21682;DHT22;11002;48.256;10.084;2024-02-04T05:11:58;5.60;68.70
21682;DHT22;11002;48.256;10.084;2024-02-04T05:14:26;5.60;68.70
21682;DHT22;11002;48.256;10.084;2024-02-04T05:16:54;5.60;68.70
21682;DHT22;11002;48.256;10.084;2024-02-04T05:19:21;5.60;68.70
21682;DHT22;11002;48.256;10.084;2024-02-04T05:21:49;5.60;68.70
21682;DHT22;11002;48.256;10.084;2024-02-04T05:24:16;5.60;68.70
21682;DHT22;11002;48.256;10.084;2024-02-04T05:26:43;5.70;68.80
21682;DHT22;11002;48.256;10.084;2024-02-04T05:29:10;5.70;68.80
21682;DHT22;11002;48.256;10.084;2024-02-04T05:31:40;5.70;68.80
21682;DHT22;11002;48.256;10.084;2024-02-04T05:34:10;5.70;68.70
21682;DHT22;11002;48.256;10.084;2024-02-04T05:36:37;5.70;68.80
21682;DHT22;11002;48.256;10.084;2024-02-04T05:39:11;5.70;68.70
21682;DHT22;11002;48.256;10.084;2024-02-04T05:41:39;5.60;68.70
21682;DHT22;11002;48.256;10.084;2024-02-04T05:44:06;5.70;69.50
21682;DHT22;11002;48.256;10.084;2024-02-04T05:46:34;5.70;68.80
21682;DHT22;11002;48.256;10.084;2024-02-04T05:49:02;5.60;68.70
21682;DHT22;11002;48.256;10.084;2024-02-04T05:51:31;5.60;68.70
21682;DHT22;11002;48.256;10.084;2024-02-04T05:53:59;5.70;69.40
21682;DHT22;11002;48.256;10.084;2024-02-04T05:56:26;5.60;70.10
21682;DHT22;11002;48.256;10.084;2024-02-04T05:58:53;5.60;70.10
21682;DHT22;11002;48.256;10.084;2024-02-04T06:01:20;5.50;70.40
21682;DHT22;11002;48.256;10.084;2024-02-04T06:03:48;5.50;70.10
21682;DHT22;11002;48.256;10.084;2024-02-04T06:06:15;5.50;70.20
21682;DHT22;11002;48.256;10.084;2024-02-04T06:08:45;5.50;70.30
21682;DHT22;11002;48.256;10.084;2024-02-04T06:11:13;5.50;70.30
21682;DHT22;11002;48.256;10.084;2024-02-04T06:13:41;5.40;70.10
21682;DHT22;11002;48.256;10.084;2024-02-04T06:16:08;5.40;70.50
21682;DHT22;11002;48.256;10.084;2024-02-04T06:18:37;5.30;70.80
21682;DHT22;11002;48.256;10.084;2024-02-04T06:21:05;5.30;71.30
21682;DHT22;11002;48.256;10.084;2024-02-04T06:23:33;5.30;71.60
21682;DHT22;11002;48.256;10.084;2024-02-04T06:26:02;5.30;71.70
21682;DHT22;11002;48.256;10.084;2024-02-04T06:28:30;5.20;71.90
21682;DHT22;11002;48.256;10.084;2024-02-04T06:30:57;5.20;72.10
21682;DHT22;11002;48.256;10.084;2024-02-04T06:33:24;5.20;72.50
21682;DHT22;11002;48.256;10.084;2024-02-04T06:35:52;5.20;72.30
21682;DHT22;11002;48.256;10.084;2024-02-04T06:38:19;5.20;72.50
21682;DHT22;11002;48.256;10.084;2024-02-04T06:40:46;5.20;72.70
21682;DHT22;11002;48.256;10.084;2024-02-04T06:43:15;5.10;72.80
21682;DHT22;11002;48.256;10.084;2024-02-04T06:45:42;5.10;72.80
21682;DHT22;11002;48.256;10.084;2024-02-04T06:48:10;5.10;73.00
21682;DHT22;11002;48.256;10.084;2024-02-04T06:50:37;5.10;73.50
21682;DHT22;11002;48.256;10.084;2024-02-04T06:53:05;5.10;74.10
21682;DHT22;11002;48.256;10.084;2024-02-04T06:55:32;5.00;74.70
21682;DHT22;11002;48.256;10.084;2024-02-04T06:57:59;5.00;74.80
21682;DHT22;11002;48.256;10.084;2024-02-04T07:00:28;5.00;74.70
21682;DHT22;11002;48.256;10.084;2024-02-04T07:02:55;4.90;74.60
21682;DHT22;11002;48.256;10.084;2024-02-04T07:05:23;4.90;75.30
21682;DHT22;11002;48.256;10.084;2024-02-04T07:07:51;4.90;75.70
21682;DHT22;11002;48.256;10.084;2024-02-04T07:10:18;5.00;76.40
21682;DHT22;11002;48.256;10.084;2024-02-04T07:12:45;4.90;76.90
21682;DHT22;11002;48.256;10.084;2024-02-04T07:15:13;4.90;77.20
21682;DHT22;11002;48.256;10.084;2024-02-04T07:17:42;4.90;77.30
21682;DHT22;11002;48.256;10.084;2024-02-04T07:20:09;5.00;77.80
21682;DHT22;11002;48.256;10.084;2024-02-04T07:22:37;5.10;78.10
21682;DHT22;11002;48.256;10.084;2024-02-04T07:25:04;5.00;78.10
21682;DHT22;11002;48.256;10.084;2024-02-04T07:27:32;4.90;78.30
21682;DHT22;11002;48.256;10.084;2024-02-04T07:29:59;4.90;79.20
21682;DHT22;11002;48.256;10.084;2024-02-04T07:32:27;4.90;79.30
21682;DHT22;11002;48.256;10.084;2024-02-04T07:34:56;5.00;80.00
21682;DHT22;11002;48.256;10.084;2024-02-04T07:37:23;5.00;79.50
21682;DHT22;11002;48.256;10.084;2024-02-04T07:39:50;5.00;79.90
21682;DHT22;11002;48.256;10.084;2024-02-04T07:42:18;5.00;80.30
21682;DHT22;11002;48.256;10.084;2024-02-04T07:44:45;4.90;80.10
21682;DHT22;11002;48.256;10.084;2024-02-04T07:47:12;5.00;80.30
21682;DHT22;11002;48.256;10.084;2024-02-04T07:49:41;4.90;80.40
21682;DHT22;11002;48.256;10.084;2024-02-04T07:52:09;5.00;80.60
21682;DHT22;11002;48.256;10.084;2024-02-04T07:54:37;5.00;79.50
21682;DHT22;11002;48.256;10.084;2024-02-04T07:57:04;5.00;79.70
21682;DHT22;11002;48.256;10.084;2024-02-04T07:59:31;5.00;79.70
21682;DHT22;11002;48.256;10.084;2024-02-04T08:01:59;5.00;79.70
21682;DHT22;11002;48.256;10.084;2024-02-04T08:04:26;5.10;79.90
21682;DHT22;11002;48.256;10.084;2024-02-04T08:06:54;5.10;79.40
21682;DHT22;11002;48.256;10.084;2024-02-04T08:09:23;5.20;79.10
21682;DHT22;11002;48.256;10.084;2024-02-04T08:11:50;5.20;78.80
21682;DHT22;11002;48.256;10.084;2024-02-04T08:14:17;5.30;78.10
21682;DHT22;11002;48.256;10.084;2024-02-04T08:16:45;5.40;76.60
21682;DHT22;11002;48.256;10.084;2024-02-04T08:19:14;5.50;76.00
21682;DHT22;11002;48.256;10.084;2024-02-04T08:21:41;5.60;75.30
21682;DHT22;11002;48.256;10.084;2024-02-04T08:24:08;5.80;75.50
21682;DHT22;11002;48.256;10.084;2024-02-04T08:26:37;5.80;73.60
21682;DHT22;11002;48.256;10.084;2024-02-04T08:29:04;5.90;72.70
21682;DHT22;11002;48.256;10.084;2024-02-04T08:31:32;6.00;71.20
21682;DHT22;11002;48.256;10.084;2024-02-04T08:33:59;5.90;70.60
21682;DHT22;11002;48.256;10.084;2024-02-04T08:36:29;5.90;69.00
21682;DHT22;11002;48.256;10.084;2024-02-04T08:38:57;5.90;69.90
21682;DHT22;11002;48.256;10.084;2024-02-04T08:41:24;6.00;71.40
21682;DHT22;11002;48.256;10.084;2024-02-04T08:43:53;5.80;71.80
21682;DHT22;11002;48.256;10.084;2024-02-04T08:46:20;5.80;72.00
21682;DHT22;11002;48.256;10.084;2024-02-04T08:48:47;5.70;73.10
21682;DHT22;11002;48.256;10.084;2024-02-04T08:51:15;5.90;75.60
21682;DHT22;11002;48.256;10.084;2024-02-04T08:53:44;6.00;73.40
21682;DHT22;11002;48.256;10.084;2024-02-04T08:56:11;6.20;70.90
21682;DHT22;11002;48.256;10.084;2024-02-04T08:58:38;6.30;69.40
21682;DHT22;11002;48.256;10.084;2024-02-04T09:01:07;6.30;69.30
21682;DHT22;11002;48.256;10.084;2024-02-04T09:03:35;6.20;69.20
21682;DHT22;11002;48.256;10.084;2024-02-04T09:06:02;6.20;69.20
21682;DHT22;11002;48.256;10.084;2024-02-04T09:08:30;6.20;69.20
21682;DHT22;11002;48.256;10.084;2024-02-04T09:10:57;6.10;69.20
21682;DHT22;11002;48.256;10.084;2024-02-04T09:13:25;6.00;69.00
21682;DHT22;11002;48.256;10.084;2024-02-04T09:15:52;6.10;69.10
21682;DHT22;11002;48.256;10.084;2024-02-04T09:18:21;6.10;69.20
21682;DHT22;11002;48.256;10.084;2024-02-04T09:20:48;6.10;69.10
21682;DHT22;11002;48.256;10.084;2024-02-04T09:23:15;6.20;69.30
21682;DHT22;11002;48.256;10.084;2024-02-04T09:25:43;6.20;69.30
21682;DHT22;11002;48.256;10.084;2024-02-04T09:28:10;6.20;69.30
21682;DHT22;11002;48.256;10.084;2024-02-04T09:30:37;6.20;69.30
21682;DHT22;11002;48.256;10.084;2024-02-04T09:33:04;6.20;69.30
21682;DHT22;11002;48.256;10.084;2024-02-04T09:35:33;6.30;69.30
21682;DHT22;11002;48.256;10.084;2024-02-04T09:38:01;6.40;69.40
21682;DHT22;11002;48.256;10.084;2024-02-04T09:40:28;6.40;69.40
21682;DHT22;11002;48.256;10.084;2024-02-04T09:42:56;6.80;69.70
21682;DHT22;11002;48.256;10.084;2024-02-04T09:45:24;6.70;67.30
21682;DHT22;11002;48.256;10.084;2024-02-04T09:47:52;6.90;65.60
21682;DHT22;11002;48.256;10.084;2024-02-04T09:50:20;6.90;64.30
21682;DHT22;11002;48.256;10.084;2024-02-04T09:52:51;6.80;65.00
21682;DHT22;11002;48.256;10.084;2024-02-04T09:55:22;6.80;65.00
21682;DHT22;11002;48.256;10.084;2024-02-04T09:57:50;6.90;64.80
21682;DHT22;11002;48.256;10.084;2024-02-04T10:00:19;6.90;64.60
21682;DHT22;11002;48.256;10.084;2024-02-04T10:02:47;6.80;64.40
21682;DHT22;11002;48.256;10.084;2024-02-04T10:05:15;7.00;65.20
21682;DHT22;11002;48.256;10.084;2024-02-04T10:07:42;6.90;63.60
21682;DHT22;11002;48.256;10.084;2024-02-04T10:10:11;7.10;63.30
21682;DHT22;11002;48.256;10.084;2024-02-04T10:12:39;7.10;63.30
21682;DHT22;11002;48.256;10.084;2024-02-04T10:15:08;7.20;63.40
21682;DHT22;11002;48.256;10.084;2024-02-04T10:17:35;7.20;63.40
21682;DHT22;11002;48.256;10.084;2024-02-04T10:20:03;7.30;63.20
21682;DHT22;11002;48.256;10.084;2024-02-04T10:22:31;7.50;62.00
21682;DHT22;11002;48.256;10.084;2024-02-04T10:25:06;7.70;61.10
21682;DHT22;11002;48.256;10.084;2024-02-04T10:27:35;7.80;60.90
21682;DHT22;11002;48.256;10.084;2024-02-04T10:30:03;8.00;60.00
21682;DHT22;11002;48.256;10.084;2024-02-04T10:32:31;8.10;57.70
21682;DHT22;11002;48.256;10.084;2024-02-04T10:34:58;8.30;57.90
21682;DHT22;11002;48.256;10.084;2024-02-04T10:37:26;8.60;58.10
21682;DHT22;11002;48.256;10.084;2024-02-04T10:39:54;9.10;55.40
21682;DHT22;11002;48.256;10.084;2024-02-04T10:42:26;9.40;53.40
21682;DHT22;11002;48.256;10.084;2024-02-04T10:44:55;9.70;52.90
21682;DHT22;11002;48.256;10.084;2024-02-04T10:47:28;10.00;49.00
21682;DHT22;11002;48.256;10.084;2024-02-04T10:49:58;9.90;50.10
21682;DHT22;11002;48.256;10.084;2024-02-04T10:52:27;9.90;49.60
21682;DHT22;11002;48.256;10.084;2024-02-04T10:54:55;10.00;48.30
21682;DHT22;11002;48.256;10.084;2024-02-04T10:57:23;10.30;47.50
21682;DHT22;11002;48.256;10.084;2024-02-04T10:59:52;10.70;46.60
21682;DHT22;11002;48.256;10.084;2024-02-04T11:02:21;10.90;45.40
21682;DHT22;11002;48.256;10.084;2024-02-04T11:04:50;11.10;44.90
21682;DHT22;11002;48.256;10.084;2024-02-04T11:07:17;11.10;44.60
21682;DHT22;11002;48.256;10.084;2024-02-04T11:09:46;11.00;44.10
21682;DHT22;11002;48.256;10.084;2024-02-04T11:12:17;11.00;45.50
21682;DHT22;11002;48.256;10.084;2024-02-04T11:14:50;11.30;44.00
21682;DHT22;11002;48.256;10.084;2024-02-04T11:20:26;11.10;42.60
21682;DHT22;11002;48.256;10.084;2024-02-04T11:23:11;10.90;44.20
21682;DHT22;11002;48.256;10.084;2024-02-04T11:25:44;11.10;43.70
21682;DHT22;11002;48.256;10.084;2024-02-04T11:28:12;11.10;44.30
21682;DHT22;11002;48.256;10.084;2024-02-04T11:30:40;11.10;43.70
21682;DHT22;11002;48.256;10.084;2024-02-04T11:33:11;10.80;43.60
21682;DHT22;11002;48.256;10.084;2024-02-04T11:35:38;10.40;44.20
21682;DHT22;11002;48.256;10.084;2024-02-04T11:38:06;10.00;45.30
21682;DHT22;11002;48.256;10.084;2024-02-04T11:40:34;9.70;48.20
21682;DHT22;11002;48.256;10.084;2024-02-04T11:43:04;9.60;49.10
21682;DHT22;11002;48.256;10.084;2024-02-04T11:45:37;9.50;48.90
21682;DHT22;11002;48.256;10.084;2024-02-04T11:48:09;9.50;49.80
21682;DHT22;11002;48.256;10.084;2024-02-04T11:50:37;9.50;50.10
21682;DHT22;11002;48.256;10.084;2024-02-04T11:53:09;9.60;49.70
21682;DHT22;11002;48.256;10.084;2024-02-04T11:55:38;10.00;49.10
21682;DHT22;11002;48.256;10.084;2024-02-04T11:58:06;10.40;46.30
21682;DHT22;11002;48.256;10.084;2024-02-04T12:00:35;10.50;46.40
21682;DHT22;11002;48.256;10.084;2024-02-04T12:03:03;10.80;46.60
21682;DHT22;11002;48.256;10.084;2024-02-04T12:05:33;11.40;43.80
21682;DHT22;11002;48.256;10.084;2024-02-04T12:08:02;11.90;42.10
21682;DHT22;11002;48.256;10.084;2024-02-04T12:10:30;12.20;41.50
21682;DHT22;11002;48.256;10.084;2024-02-04T12:12:59;12.10;41.40
21682;DHT22;11002;48.256;10.084;2024-02-04T12:15:26;11.80;41.10
21682;DHT22;11002;48.256;10.084;2024-02-04T12:17:54;11.70;42.10
21682;DHT22;11002;48.256;10.084;2024-02-04T12:20:21;11.50;40.90
21682;DHT22;11002;48.256;10.084;2024-02-04T12:22:50;11.20;43.70
21682;DHT22;11002;48.256;10.084;2024-02-04T12:25:17;11.10;43.80
21682;DHT22;11002;48.256;10.084;2024-02-04T12:27:45;10.90;44.50
21682;DHT22;11002;48.256;10.084;2024-02-04T12:30:14;10.70;45.70
21682;DHT22;11002;48.256;10.084;2024-02-04T12:32:42;10.70;45.80
21682;DHT22;11002;48.256;10.084;2024-02-04T12:35:13;10.70;46.60
21682;DHT22;11002;48.256;10.084;2024-02-04T12:37:51;10.70;46.60
21682;DHT22;11002;48.256;10.084;2024-02-04T12:40:22;10.80;46.60
21682;DHT22;11002;48.256;10.084;2024-02-04T12:42:54;10.80;46.60
21682;DHT22;11002;48.256;10.084;2024-02-04T12:45:22;10.80;46.70
21682;DHT22;11002;48.256;10.084;2024-02-04T12:47:50;10.70;46.40
21682;DHT22;11002;48.256;10.084;2024-02-04T12:50:18;10.50;46.10
21682;DHT22;11002;48.256;10.084;2024-02-04T12:52:46;10.20;46.10
21682;DHT22;11002;48.256;10.084;2024-02-04T12:55:23;10.10;46.50
21682;DHT22;11002;48.256;10.084;2024-02-04T12:58:01;10.00;47.60
21682;DHT22;11002;48.256;10.084;2024-02-04T13:00:29;10.20;47.50
21682;DHT22;11002;48.256;10.084;2024-02-04T13:02:57;10.40;47.70
21682;DHT22;11002;48.256;10.084;2024-02-04T13:05:25;10.90;46.70
21682;DHT22;11002;48.256;10.084;2024-02-04T13:07:54;11.30;46.00
21682;DHT22;11002;48.256;10.084;2024-02-04T13:10:24;11.50;44.60
21682;DHT22;11002;48.256;10.084;2024-02-04T13:12:59;11.60;44.20
21682;DHT22;11002;48.256;10.084;2024-02-04T13:15:27;11.40;44.00
21682;DHT22;11002;48.256;10.084;2024-02-04T13:17:55;11.30;44.40
21682;DHT22;11002;48.256;10.084;2024-02-04T13:20:22;11.20;44.70
21682;DHT22;11002;48.256;10.084;2024-02-04T13:22:50;11.20;45.80
21682;DHT22;11002;48.256;10.084;2024-02-04T13:25:19;11.10;45.20
21682;DHT22;11002;48.256;10.084;2024-02-04T13:27:49;11.00;45.40
21682;DHT22;11002;48.256;10.084;2024-02-04T13:30:17;11.00;45.70
21682;DHT22;11002;48.256;10.084;2024-02-04T13:32:45;11.00;45.80
21682;DHT22;11002;48.256;10.084;2024-02-04T13:35:12;10.90;46.20
21682;DHT22;11002;48.256;10.084;2024-02-04T13:37:43;11.00;46.90
21682;DHT22;11002;48.256;10.084;2024-02-04T13:40:14;11.30;45.60
21682;DHT22;11002;48.256;10.084;2024-02-04T13:42:41;11.50;44.80
21682;DHT22;11002;48.256;10.084;2024-02-04T13:45:11;11.70;43.90
21682;DHT22;11002;48.256;10.084;2024-02-04T13:47:40;11.80;43.70
21682;DHT22;11002;48.256;10.084;2024-02-04T13:50:08;11.80;42.00
21682;DHT22;11002;48.256;10.084;2024-02-04T13:52:35;11.70;42.80
21682;DHT22;11002;48.256;10.084;2024-02-04T13:55:03;11.50;42.50
21682;DHT22;11002;48.256;10.084;2024-02-04T13:57:32;11.30;43.80
21682;DHT22;11002;48.256;10.084;2024-02-04T13:59:59;11.10;44.80
21682;DHT22;11002;48.256;10.084;2024-02-04T14:02:28;11.00;45.00
21682;DHT22;11002;48.256;10.084;2024-02-04T14:04:55;10.70;46.00
21682;DHT22;11002;48.256;10.084;2024-02-04T14:07:23;10.50;46.40
21682;DHT22;11002;48.256;10.084;2024-02-04T14:09:50;10.40;46.30
21682;DHT22;11002;48.256;10.084;2024-02-04T14:12:17;10.30;46.20
21682;DHT22;11002;48.256;10.084;2024-02-04T14:14:44;10.30;46.20
21682;DHT22;11002;48.256;10.084;2024-02-04T14:17:12;10.30;46.90
21682;DHT22;11002;48.256;10.084;2024-02-04T14:19:41;10.20;46.50
21682;DHT22;11002;48.256;10.084;2024-02-04T14:22:11;10.20;47.00
21682;DHT22;11002;48.256;10.084;2024-02-04T14:24:38;10.20;47.50
21682;DHT22;11002;48.256;10.084;2024-02-04T14:27:05;10.20;47.70
21682;DHT22;11002;48.256;10.084;2024-02-04T14:29:33;10.10;47.90
21682;DHT22;11002;48.256;10.084;2024-02-04T14:32:00;10.00;48.90
21682;DHT22;11002;48.256;10.084;2024-02-04T14:34:27;10.10;48.20
21682;DHT22;11002;48.256;10.084;2024-02-04T14:36:56;10.10;48.00
21682;DHT22;11002;48.256;10.084;2024-02-04T14:39:23;10.10;48.30
21682;DHT22;11002;48.256;10.084;2024-02-04T14:41:50;10.10;48.20
21682;DHT22;11002;48.256;10.084;2024-02-04T14:44:22;10.00;48.20
21682;DHT22;11002;48.256;10.084;2024-02-04T14:46:50;10.00;48.10
21682;DHT22;11002;48.256;10.084;2024-02-04T14:49:17;10.00;47.80
21682;DHT22;11002;48.256;10.084;2024-02-04T14:51:45;10.00;48.30
21682;DHT22;11002;48.256;10.084;2024-02-04T14:54:14;10.00;48.90
21682;DHT22;11002;48.256;10.084;2024-02-04T14:56:42;9.90;50.00
21682;DHT22;11002;48.256;10.084;2024-02-04T14:59:13;9.90;50.60
21682;DHT22;11002;48.256;10.084;2024-02-04T15:01:44;9.90;50.60
21682;DHT22;11002;48.256;10.084;2024-02-04T15:04:12;9.90;50.50
21682;DHT22;11002;48.256;10.084;2024-02-04T15:06:40;9.90;50.70
21682;DHT22;11002;48.256;10.084;2024-02-04T15:09:08;9.90;50.60
21682;DHT22;11002;48.256;10.084;2024-02-04T15:11:37;9.90;50.90
21682;DHT22;11002;48.256;10.084;2024-02-04T15:14:05;9.90;50.70
21682;DHT22;11002;48.256;10.084;2024-02-04T15:16:34;9.90;51.00
21682;DHT22;11002;48.256;10.084;2024-02-04T15:19:05;9.90;51.70
21682;DHT22;11002;48.256;10.084;2024-02-04T15:21:33;9.80;51.30
21682;DHT22;11002;48.256;10.084;2024-02-04T15:24:01;9.80;51.50
21682;DHT22;11002;48.256;10.084;2024-02-04T15:26:32;9.80;51.20
21682;DHT22;11002;48.256;10.084;2024-02-04T15:29:02;9.80;51.20
21682;DHT22;11002;48.256;10.084;2024-02-04T15:31:30;9.70;51.30
21682;DHT22;11002;48.256;10.084;2024-02-04T15:33:59;9.70;51.10
21682;DHT22;11002;48.256;10.084;2024-02-04T15:36:28;9.60;51.90